createdAt,value
2023-01-13T00:00:38.231Z,68.24
2023-01-13T00:03:07.406Z,68.27
2023-01-13T00:05:38.601Z,68.21
2023-01-13T00:08:07.374Z,68.23
2023-01-13T00:10:36.402Z,68.24
2023-01-13T00:13:06.390Z,67.99
2023-01-13T00:15:35.362Z,68.20
2023-01-13T00:18:04.218Z,68.29
2023-01-13T00:20:32.803Z,68.19
2023-01-13T00:23:04.355Z,67.92
2023-01-13T00:25:33.678Z,68.31
2023-01-13T00:28:02.265Z,68.18
2023-01-13T00:30:30.857Z,67.98
2023-01-13T00:32:59.440Z,68.29
2023-01-13T00:35:28.329Z,68.12
2023-01-13T00:37:56.906Z,68.02
2023-01-13T00:40:26.950Z,68.14
2023-01-13T00:43:13.138Z,68.39
2023-01-13T00:45:41.759Z,68.10
2023-01-13T00:48:10.339Z,68.02
2023-01-13T00:50:39.062Z,68.22
2023-01-13T00:53:07.991Z,68.37
2023-01-13T00:55:37.899Z,68.32
2023-01-13T00:58:06.683Z,67.57
2023-01-13T01:00:35.484Z,67.85
2023-01-13T01:03:07.338Z,67.65
2023-01-13T01:05:35.973Z,67.40
2023-01-13T01:08:04.688Z,67.59
2023-01-13T01:10:33.282Z,67.90
2023-01-13T01:13:03.226Z,67.43
2023-01-13T01:15:31.731Z,67.06
2023-01-13T01:18:00.307Z,67.23
2023-01-13T01:20:28.943Z,67.26
2023-01-13T01:22:57.544Z,67.13
2023-01-13T01:25:26.287Z,67.20
2023-01-13T01:27:55.594Z,66.94
2023-01-13T01:30:25.546Z,67.06
2023-01-13T01:32:54.124Z,66.96
2023-01-13T01:35:22.807Z,66.85
2023-01-13T01:37:51.358Z,66.86
2023-01-13T01:40:20.233Z,66.75
2023-01-13T01:43:06.352Z,66.65
2023-01-13T01:45:36.645Z,66.64
2023-01-13T01:48:06.494Z,66.69
2023-01-13T01:50:35.423Z,67.18
2023-01-13T01:53:08.562Z,67.51
2023-01-13T01:55:37.887Z,67.71
2023-01-13T01:58:10.525Z,67.36
2023-01-13T02:00:40.481Z,67.83
2023-01-13T02:03:09.569Z,67.40
2023-01-13T02:05:38.879Z,67.58
2023-01-13T02:08:09.492Z,67.69
2023-01-13T02:10:38.251Z,68.02
2023-01-13T02:13:07.162Z,67.51
2023-01-13T02:15:42.003Z,67.47
2023-01-13T02:18:39.663Z,67.59
2023-01-13T02:21:31.891Z,68.29
2023-01-13T02:24:52.775Z,68.25
2023-01-13T02:27:49.123Z,68.46
2023-01-13T02:30:44.941Z,68.18
2023-01-13T02:33:27.900Z,68.24
2023-01-13T02:36:01.652Z,68.55
2023-01-13T02:38:34.098Z,68.54
2023-01-13T02:41:20.385Z,68.44
2023-01-13T02:44:08.970Z,68.45
2023-01-13T02:46:45.485Z,68.60
2023-01-13T02:49:21.577Z,68.95
2023-01-13T02:51:50.408Z,68.87
2023-01-13T02:54:22.274Z,68.67
2023-01-13T02:56:52.591Z,69.00
2023-01-13T02:59:21.709Z,68.58
2023-01-13T03:01:53.369Z,68.58
2023-01-13T03:04:47.725Z,68.65
2023-01-13T03:07:43.840Z,68.73
2023-01-13T03:10:21.169Z,68.79
2023-01-13T03:12:56.868Z,68.95
2023-01-13T03:15:36.948Z,69.09
2023-01-13T03:18:14.606Z,69.26
2023-01-13T03:20:49.178Z,69.33
2023-01-13T03:23:20.683Z,69.03
2023-01-13T03:25:56.106Z,69.10
2023-01-13T03:28:29.414Z,69.37
2023-01-13T03:31:00.546Z,69.31
2023-01-13T03:33:33.541Z,69.55
2023-01-13T03:36:05.487Z,69.64
2023-01-13T03:38:36.994Z,69.35
2023-01-13T03:41:08.361Z,69.37
2023-01-13T03:43:57.474Z,69.56
2023-01-13T03:46:30.989Z,69.03
2023-01-13T03:49:03.070Z,69.27
2023-01-13T03:51:33.354Z,69.60
2023-01-13T03:54:04.652Z,69.56
2023-01-13T03:56:37.481Z,70.13
2023-01-13T03:59:08.054Z,69.43
2023-01-13T04:01:43.050Z,69.60
2023-01-13T04:04:13.993Z,69.75
2023-01-13T04:06:48.638Z,69.92
2023-01-13T04:09:21.224Z,69.58
2023-01-13T04:11:54.779Z,69.71
2023-01-13T04:14:24.564Z,69.55
2023-01-13T04:16:55.897Z,69.60
2023-01-13T04:19:25.888Z,69.79
2023-01-13T04:21:54.636Z,69.85
2023-01-13T04:24:23.198Z,69.73
2023-01-13T04:26:51.858Z,69.88
2023-01-13T04:29:20.507Z,70.10
2023-01-13T04:31:49.173Z,70.57
2023-01-13T04:34:17.819Z,70.32
2023-01-13T04:36:47.753Z,70.16
2023-01-13T04:39:16.786Z,69.95
2023-01-13T04:42:02.328Z,69.77
2023-01-13T04:44:35.261Z,70.01
2023-01-13T04:47:03.846Z,69.61
2023-01-13T04:49:33.342Z,69.89
2023-01-13T04:52:04.079Z,69.26
2023-01-13T04:54:32.729Z,69.48
2023-01-13T04:57:01.334Z,69.48
2023-01-13T04:59:29.973Z,69.33
2023-01-13T05:01:58.717Z,69.27
2023-01-13T05:04:27.458Z,69.27
2023-01-13T05:06:56.066Z,68.76
2023-01-13T05:09:26.266Z,69.03
2023-01-13T05:12:12.558Z,69.26
2023-01-13T05:14:58.970Z,68.81
2023-01-13T05:17:27.949Z,69.07
2023-01-13T05:19:56.604Z,68.85
2023-01-13T05:22:42.694Z,69.10
2023-01-13T05:25:25.541Z,68.98
2023-01-13T05:27:56.243Z,69.05
2023-01-13T05:30:26.648Z,68.78
2023-01-13T05:32:55.449Z,68.71
2023-01-13T05:35:24.068Z,68.84
2023-01-13T05:37:52.973Z,68.78
2023-01-13T05:40:40.781Z,68.60
2023-01-13T05:43:21.307Z,68.97
2023-01-13T05:45:51.710Z,68.61
2023-01-13T05:48:21.792Z,68.99
2023-01-13T05:50:51.070Z,69.12
2023-01-13T05:53:20.690Z,68.79
2023-01-13T05:55:51.187Z,69.16
2023-01-13T05:58:21.604Z,69.11
2023-01-13T06:00:50.525Z,68.94
2023-01-13T06:03:21.067Z,69.01
2023-01-13T06:05:51.352Z,69.10
2023-01-13T06:08:20.256Z,69.20
2023-01-13T06:10:50.208Z,69.29
2023-01-13T06:13:18.872Z,68.73
2023-01-13T06:15:47.711Z,69.26
2023-01-13T06:18:16.441Z,69.39
2023-01-13T06:20:45.226Z,68.83
2023-01-13T06:23:13.941Z,68.75
2023-01-13T06:25:47.691Z,68.98
2023-01-13T06:28:17.715Z,69.03
2023-01-13T06:30:48.219Z,69.25
2023-01-13T06:33:18.620Z,68.95
2023-01-13T06:35:50.498Z,68.96
2023-01-13T06:38:20.702Z,69.14
2023-01-13T06:40:49.868Z,69.12
2023-01-13T06:43:19.147Z,68.96
2023-01-13T06:45:50.353Z,68.99
2023-01-13T06:48:19.637Z,69.34
2023-01-13T06:50:48.335Z,69.24
2023-01-13T06:53:17.090Z,69.08
2023-01-13T06:55:45.721Z,69.22
2023-01-13T06:58:14.771Z,69.40
2023-01-13T07:00:44.890Z,69.19
2023-01-13T07:03:14.790Z,69.83
2023-01-13T07:05:44.768Z,69.88
2023-01-13T07:08:13.425Z,70.00
2023-01-13T07:10:42.070Z,70.21
2023-01-13T07:13:28.080Z,70.12
2023-01-13T07:15:59.714Z,70.21
2023-01-13T07:18:31.582Z,70.07
2023-01-13T07:21:01.636Z,70.31
2023-01-13T07:23:31.356Z,70.22
2023-01-13T07:26:01.117Z,70.39
2023-01-13T07:28:31.092Z,70.59
2023-01-13T07:31:01.635Z,70.07
2023-01-13T07:33:33.131Z,70.13
2023-01-13T07:36:03.583Z,70.17
2023-01-13T07:38:32.838Z,70.35
2023-01-13T07:41:22.984Z,70.83
2023-01-13T07:43:51.348Z,70.59
2023-01-13T07:46:21.734Z,70.28
2023-01-13T07:48:50.619Z,70.34
2023-01-13T07:51:19.513Z,70.40
2023-01-13T07:53:48.175Z,70.85
2023-01-13T07:56:16.930Z,70.02
2023-01-13T07:58:50.233Z,70.26
2023-01-13T08:01:21.268Z,70.08
2023-01-13T08:03:50.108Z,70.05
2023-01-13T08:06:18.955Z,70.29
2023-01-13T08:08:47.680Z,70.46
2023-01-13T08:11:16.397Z,70.22
2023-01-13T08:13:45.152Z,70.38
2023-01-13T08:16:15.164Z,70.37
2023-01-13T08:18:45.248Z,70.51
2023-01-13T08:21:15.323Z,70.99
2023-01-13T08:23:45.675Z,70.39
2023-01-13T08:26:16.080Z,70.88
2023-01-13T08:28:45.144Z,70.92
2023-01-13T08:31:17.129Z,71.02
2023-01-13T08:33:47.593Z,71.13
2023-01-13T08:36:18.385Z,71.33
2023-01-13T08:38:47.108Z,72.29
2023-01-13T08:41:37.629Z,73.03
2023-01-13T08:44:09.216Z,73.43
2023-01-13T08:46:37.942Z,74.90
2023-01-13T08:49:08.103Z,76.33
2023-01-13T08:51:37.020Z,79.00
2023-01-13T08:54:06.252Z,80.75
2023-01-13T08:56:35.816Z,81.92
2023-01-13T08:59:09.838Z,82.63
2023-01-13T09:01:39.397Z,82.09
2023-01-13T09:04:13.498Z,82.63
2023-01-13T09:06:42.333Z,83.38
2023-01-13T09:09:10.987Z,84.78
2023-01-13T09:12:01.124Z,81.54
2023-01-13T09:14:31.926Z,80.63
2023-01-13T09:17:02.145Z,78.82
2023-01-13T09:19:32.196Z,77.74
2023-01-13T09:22:01.110Z,76.22
2023-01-13T09:24:30.040Z,76.29
2023-01-13T09:26:59.302Z,75.37
2023-01-13T09:29:28.238Z,76.19
2023-01-13T09:31:58.066Z,76.40
2023-01-13T09:34:44.682Z,76.47
2023-01-13T09:37:14.772Z,75.57
2023-01-13T09:39:43.534Z,75.93
2023-01-13T09:42:46.003Z,75.83
2023-01-13T09:45:17.129Z,76.22
2023-01-13T09:47:51.144Z,76.64
2023-01-13T09:50:30.690Z,75.58
2023-01-13T09:53:00.759Z,76.28
2023-01-13T09:55:33.901Z,74.33
2023-01-13T09:58:03.987Z,75.29
2023-01-13T10:00:37.463Z,75.72
2023-01-13T10:03:22.628Z,75.05
2023-01-13T10:05:56.648Z,72.85
2023-01-13T10:08:28.111Z,72.23
2023-01-13T10:10:59.395Z,72.43
2023-01-13T10:13:29.170Z,71.67
2023-01-13T10:16:11.768Z,71.19
2023-01-13T10:18:46.586Z,72.39
2023-01-13T10:21:27.033Z,73.49
2023-01-13T10:24:02.640Z,73.75
2023-01-13T10:26:46.024Z,73.42
2023-01-13T10:29:24.813Z,73.57
2023-01-13T10:31:54.263Z,73.26
2023-01-13T10:34:23.896Z,74.79
2023-01-13T10:37:01.593Z,73.69
2023-01-13T10:39:40.946Z,74.38
2023-01-13T10:42:15.152Z,75.89
2023-01-13T10:44:51.938Z,75.23
2023-01-13T10:47:24.654Z,76.05
2023-01-13T10:50:14.348Z,76.31
2023-01-13T10:53:01.111Z,76.79
2023-01-13T10:55:33.319Z,75.15
2023-01-13T10:58:14.917Z,76.85
2023-01-13T11:00:43.642Z,78.40
2023-01-13T11:03:16.760Z,76.38
2023-01-13T11:05:53.952Z,78.93
2023-01-13T11:08:24.726Z,79.14
2023-01-13T11:10:56.337Z,74.54
2023-01-13T11:13:31.315Z,75.93
2023-01-13T11:16:02.094Z,76.40
2023-01-13T11:18:43.580Z,75.62
2023-01-13T11:21:21.908Z,75.97
2023-01-13T11:23:55.521Z,74.41
2023-01-13T11:26:31.310Z,76.26
2023-01-13T11:29:03.787Z,75.55
2023-01-13T11:31:36.048Z,76.07
2023-01-13T11:34:08.221Z,75.29
2023-01-13T11:36:40.493Z,74.43
2023-01-13T11:39:19.218Z,75.06
2023-01-13T11:42:13.743Z,75.33
2023-01-13T11:44:46.396Z,75.10
2023-01-13T11:47:15.595Z,75.63
2023-01-13T11:49:48.668Z,75.94
2023-01-13T11:52:22.619Z,75.85
2023-01-13T11:55:11.344Z,76.20
2023-01-13T11:58:07.960Z,76.17
2023-01-13T12:00:45.899Z,76.96
2023-01-13T12:03:25.892Z,77.36
2023-01-13T12:06:03.458Z,76.75
2023-01-13T12:09:05.930Z,76.15
2023-01-13T12:11:58.320Z,74.37
2023-01-13T12:14:37.460Z,73.59
2023-01-13T12:17:12.888Z,73.33
2023-01-13T12:19:45.174Z,73.41
2023-01-13T12:22:14.904Z,74.43
2023-01-13T12:24:49.402Z,75.18
2023-01-13T12:27:22.833Z,75.49
2023-01-13T12:29:58.267Z,75.78
2023-01-13T12:32:34.349Z,73.26
2023-01-13T12:35:18.676Z,72.50
2023-01-13T12:37:51.589Z,71.62
2023-01-13T12:40:30.397Z,69.39
2023-01-13T12:43:26.245Z,67.50
2023-01-13T12:45:56.320Z,65.81
2023-01-13T12:48:49.097Z,66.37
2023-01-13T12:51:26.213Z,65.10
2023-01-13T12:53:56.297Z,62.22
2023-01-13T12:56:42.132Z,61.13
2023-01-13T12:59:48.920Z,59.29
2023-01-13T13:02:38.794Z,56.68
2023-01-13T13:05:38.377Z,57.32
2023-01-13T13:08:13.256Z,56.51
2023-01-13T13:10:43.983Z,57.16
2023-01-13T13:13:22.635Z,56.62
2023-01-13T13:15:52.450Z,57.37
2023-01-13T13:18:28.486Z,56.46
2023-01-13T13:21:01.666Z,56.89
2023-01-13T13:23:47.988Z,55.90
2023-01-13T13:26:37.547Z,55.49
2023-01-13T13:29:42.929Z,55.63
2023-01-13T13:32:42.506Z,55.41
2023-01-13T13:35:32.084Z,55.28
2023-01-13T13:38:29.123Z,54.38
2023-01-13T13:41:15.233Z,54.21
2023-01-13T13:44:03.304Z,54.23
2023-01-13T13:46:49.466Z,53.60
2023-01-13T13:49:19.692Z,53.03
2023-01-13T13:51:55.720Z,52.34
2023-01-13T13:54:25.040Z,52.25
2023-01-13T13:56:53.957Z,52.80
2023-01-13T13:59:26.054Z,54.69
2023-01-13T14:02:01.680Z,55.24
2023-01-13T14:04:32.651Z,56.12
2023-01-13T14:07:04.896Z,56.90
2023-01-13T14:09:42.917Z,58.32
2023-01-13T14:12:19.764Z,59.87
2023-01-13T14:14:49.163Z,60.77
2023-01-13T14:17:21.255Z,63.03
2023-01-13T14:19:54.203Z,65.49
2023-01-13T14:22:24.320Z,69.20
2023-01-13T14:24:57.696Z,68.18
2023-01-13T14:27:28.435Z,68.75
2023-01-13T14:29:59.114Z,68.31
2023-01-13T14:32:32.567Z,69.36
2023-01-13T14:35:02.805Z,69.64
2023-01-13T14:37:36.489Z,71.44
2023-01-13T14:40:05.749Z,70.76
2023-01-13T14:42:35.531Z,72.20
2023-01-13T14:45:04.583Z,71.63
2023-01-13T14:47:34.756Z,71.75
2023-01-13T14:50:07.711Z,70.60
2023-01-13T14:52:39.040Z,70.73
2023-01-13T14:55:24.298Z,70.70
2023-01-13T14:57:53.122Z,71.14
2023-01-13T15:00:24.510Z,71.32
2023-01-13T15:03:07.523Z,71.81
2023-01-13T15:05:38.438Z,72.15
2023-01-13T15:08:33.455Z,71.81
2023-01-13T15:11:05.251Z,72.24
2023-01-13T15:13:42.865Z,72.43
2023-01-13T15:16:18.898Z,72.55
2023-01-13T15:18:48.184Z,72.29
2023-01-13T15:21:17.355Z,72.40
2023-01-13T15:23:48.200Z,72.21
2023-01-13T15:26:25.749Z,71.85
2023-01-13T15:28:55.793Z,72.09
2023-01-13T15:31:25.303Z,71.54
2023-01-13T15:33:54.357Z,71.32
2023-01-13T15:36:28.444Z,70.96
2023-01-13T15:38:59.709Z,71.07
2023-01-13T15:41:48.493Z,71.83
2023-01-13T15:44:35.722Z,72.42
2023-01-13T15:47:06.252Z,72.49
2023-01-13T15:49:37.736Z,72.45
2023-01-13T15:52:15.271Z,72.57
2023-01-13T15:54:45.250Z,72.41
2023-01-13T15:57:22.208Z,72.58
2023-01-13T15:59:51.434Z,71.87
2023-01-13T16:02:22.318Z,72.06
2023-01-13T16:04:53.898Z,72.31
2023-01-13T16:07:23.844Z,72.16
2023-01-13T16:09:54.220Z,72.14
2023-01-13T16:12:22.937Z,72.06
2023-01-13T16:14:51.988Z,71.58
2023-01-13T16:17:22.913Z,71.84
2023-01-13T16:19:52.125Z,72.23
2023-01-13T16:22:20.805Z,72.57
2023-01-13T16:24:49.932Z,72.44
2023-01-13T16:27:21.225Z,72.64
2023-01-13T16:29:50.537Z,73.46
2023-01-13T16:32:21.005Z,73.67
2023-01-13T16:34:50.084Z,73.88
2023-01-13T16:37:22.122Z,74.45
2023-01-13T16:39:51.764Z,74.51
2023-01-13T16:42:22.156Z,74.92
2023-01-13T16:44:52.848Z,75.38
2023-01-13T16:47:22.903Z,75.41
2023-01-13T16:49:51.971Z,75.45
2023-01-13T16:52:20.900Z,75.15
2023-01-13T16:54:49.526Z,75.03
2023-01-13T16:57:18.339Z,75.38
2023-01-13T16:59:48.522Z,75.05
2023-01-13T17:02:20.219Z,74.72
2023-01-13T17:04:49.579Z,74.66
2023-01-13T17:07:18.826Z,74.64
2023-01-13T17:09:47.645Z,73.96
2023-01-13T17:12:16.333Z,73.82
2023-01-13T17:14:45.169Z,73.89
2023-01-13T17:17:23.758Z,74.31
2023-01-13T17:19:53.611Z,73.94
2023-01-13T17:22:22.831Z,74.27
2023-01-13T17:24:51.512Z,74.25
2023-01-13T17:27:21.399Z,74.01
2023-01-13T17:29:50.141Z,73.83
2023-01-13T17:32:23.011Z,73.83
2023-01-13T17:34:53.677Z,73.52
2023-01-13T17:37:22.681Z,73.60
2023-01-13T17:39:53.473Z,72.87
2023-01-13T17:42:23.749Z,72.04
2023-01-13T17:44:56.351Z,71.67
2023-01-13T17:47:26.720Z,72.00
2023-01-13T17:49:55.454Z,71.65
2023-01-13T17:52:24.112Z,71.46
2023-01-13T17:54:52.739Z,71.01
2023-01-13T17:57:21.546Z,71.49
2023-01-13T17:59:50.444Z,71.23
2023-01-13T18:02:19.447Z,71.04
2023-01-13T18:04:49.946Z,70.84
2023-01-13T18:07:18.862Z,70.65
2023-01-13T18:09:47.743Z,71.19
2023-01-13T18:12:16.521Z,71.25
2023-01-13T18:14:45.198Z,71.38
2023-01-13T18:17:13.822Z,71.63
2023-01-13T18:20:00.127Z,72.20
2023-01-13T18:22:46.920Z,72.54
2023-01-13T18:25:38.415Z,72.87
2023-01-13T18:28:07.136Z,73.13
2023-01-13T18:30:35.877Z,73.69
2023-01-13T18:33:04.599Z,73.64
2023-01-13T18:35:33.482Z,74.13
2023-01-13T18:38:03.516Z,74.07
2023-01-13T18:40:32.190Z,73.83
2023-01-13T18:42:59.919Z,74.17
2023-01-13T18:45:29.953Z,74.60
2023-01-13T18:48:00.159Z,74.92
2023-01-13T18:50:29.203Z,75.34
2023-01-13T18:52:57.926Z,75.59
2023-01-13T18:55:28.848Z,76.15
2023-01-13T18:57:58.671Z,76.54
2023-01-13T19:00:27.942Z,76.92
2023-01-13T19:05:35.644Z,76.96
2023-01-13T19:08:04.915Z,77.10
2023-01-13T19:10:36.195Z,77.50
2023-01-13T19:13:05.095Z,77.44
2023-01-13T19:15:33.869Z,76.93
2023-01-13T19:18:02.554Z,77.17
2023-01-13T19:20:31.439Z,76.69
2023-01-13T19:23:00.126Z,76.45
2023-01-13T19:25:28.919Z,75.86
2023-01-13T19:27:58.890Z,75.82
2023-01-13T19:30:27.700Z,74.78
2023-01-13T19:32:56.370Z,74.91
2023-01-13T19:35:24.986Z,74.45
2023-01-13T19:37:54.076Z,74.77
2023-01-13T19:40:22.718Z,74.87
2023-01-13T19:43:08.981Z,74.77
2023-01-13T19:45:38.996Z,75.03
2023-01-13T19:48:08.524Z,74.73
2023-01-13T19:50:38.728Z,74.71
2023-01-13T19:53:07.715Z,74.58
2023-01-13T19:55:36.415Z,74.29
2023-01-13T19:58:05.058Z,74.21
2023-01-13T20:00:34.835Z,74.37
2023-01-13T20:03:08.079Z,74.69
2023-01-13T20:05:36.897Z,74.78
2023-01-13T20:08:06.162Z,74.32
2023-01-13T20:10:34.899Z,74.49
2023-01-13T20:13:03.728Z,74.17
2023-01-13T20:15:32.740Z,74.71
2023-01-13T20:18:01.756Z,75.78
2023-01-13T20:20:31.865Z,76.42
2023-01-13T20:23:00.543Z,76.84
2023-01-13T20:25:29.788Z,77.25
2023-01-13T20:28:00.565Z,76.80
2023-01-13T20:30:29.325Z,77.35
2023-01-13T20:32:58.362Z,77.22
2023-01-13T20:35:29.820Z,77.44
2023-01-13T20:37:59.912Z,78.24
2023-01-13T20:40:28.676Z,79.14
2023-01-13T20:42:56.860Z,79.88
2023-01-13T20:45:26.079Z,80.05
2023-01-13T20:47:55.617Z,80.64
2023-01-13T20:50:24.348Z,81.12
2023-01-13T20:52:53.528Z,80.81
2023-01-13T20:55:23.696Z,81.44
2023-01-13T20:57:52.381Z,81.15
2023-01-13T21:00:21.934Z,81.32
2023-01-13T21:02:50.681Z,80.89
2023-01-13T21:05:19.483Z,81.29
2023-01-13T21:07:48.297Z,80.56
2023-01-13T21:10:17.223Z,80.34
2023-01-13T21:13:05.266Z,79.49
2023-01-13T21:15:33.988Z,79.29
2023-01-13T21:18:19.946Z,79.21
2023-01-13T21:20:50.728Z,78.73
2023-01-13T21:23:19.438Z,78.63
2023-01-13T21:25:48.432Z,78.29
2023-01-13T21:28:19.103Z,78.28
2023-01-13T21:30:47.963Z,78.18
2023-01-13T21:33:16.802Z,78.01
2023-01-13T21:35:45.606Z,78.00
2023-01-13T21:38:14.349Z,78.43
2023-01-13T21:40:43.154Z,78.46
2023-01-13T21:43:31.347Z,78.83
2023-01-13T21:46:19.023Z,78.78
2023-01-13T21:48:47.765Z,79.08
2023-01-13T21:51:16.474Z,79.68
2023-01-13T21:53:45.113Z,79.81
2023-01-13T21:56:13.801Z,80.21
2023-01-13T21:58:43.016Z,80.43
2023-01-13T22:01:13.118Z,80.83
2023-01-13T22:03:56.249Z,82.49
2023-01-13T22:06:25.306Z,79.86
2023-01-13T22:08:55.506Z,79.71
2023-01-13T22:11:24.551Z,79.63
2023-01-13T22:14:09.304Z,80.56
2023-01-13T22:16:42.229Z,81.52
2023-01-13T22:19:11.710Z,81.72
2023-01-13T22:21:40.888Z,82.08
2023-01-13T22:24:09.892Z,82.34
2023-01-13T22:26:38.808Z,82.30
2023-01-13T22:29:07.479Z,82.21
2023-01-13T22:31:36.217Z,82.69
2023-01-13T22:34:06.215Z,83.24
2023-01-13T22:36:35.079Z,83.71
2023-01-13T22:39:04.748Z,84.38
2023-01-13T22:41:33.408Z,84.69
2023-01-13T22:44:02.224Z,85.01
2023-01-13T22:46:30.829Z,85.18
2023-01-13T22:48:59.581Z,85.50
2023-01-13T22:51:30.502Z,85.99
2023-01-13T22:53:59.127Z,86.70
2023-01-13T22:56:28.584Z,87.08
2023-01-13T22:58:57.986Z,87.40
2023-01-13T23:01:27.826Z,87.59
2023-01-13T23:03:56.727Z,88.29
2023-01-13T23:06:28.577Z,88.10
2023-01-13T23:08:57.351Z,88.21
2023-01-13T23:11:27.529Z,88.07
2023-01-13T23:13:59.421Z,88.13
2023-01-13T23:16:29.028Z,88.07
2023-01-13T23:18:57.812Z,88.20
2023-01-13T23:21:30.014Z,88.37
2023-01-13T23:23:59.107Z,88.44
2023-01-13T23:26:28.409Z,88.16
2023-01-13T23:29:00.443Z,87.92
2023-01-13T23:31:29.182Z,88.22
2023-01-13T23:33:57.922Z,88.03
2023-01-13T23:36:29.173Z,87.93
2023-01-13T23:38:59.275Z,87.50
2023-01-13T23:41:28.915Z,87.28
2023-01-13T23:43:59.600Z,87.39
2023-01-13T23:46:28.820Z,87.30
2023-01-13T23:48:57.578Z,87.53
2023-01-13T23:51:27.444Z,87.34
2023-01-13T23:53:57.726Z,87.57
2023-01-13T23:56:28.266Z,88.26
2023-01-13T23:58:57.339Z,88.72
